sensor_id;sensor_type;location;lat;lon;timestamp;P1;durP1;ratioP1;P2;durP2;ratioP2
18290;SDS011;9271;48.590;8.866;2023-11-21T00:02:13;13.23;;;3.67;;
18290;SDS011;9271;48.590;8.866;2023-11-21T00:04:40;9.67;;;4.13;;
18290;SDS011;9271;48.590;8.866;2023-11-21T00:07:06;9.87;;;4.13;;
18290;SDS011;9271;48.590;8.866;2023-11-21T00:09:35;10.70;;;4.27;;
18290;SDS011;9271;48.590;8.866;2023-11-21T00:12:01;7.57;;;3.23;;
18290;SDS011;9271;48.590;8.866;2023-11-21T00:14:28;5.30;;;2.80;;
18290;SDS011;9271;48.590;8.866;2023-11-21T00:16:55;8.83;;;3.00;;
18290;SDS011;9271;48.590;8.866;2023-11-21T00:19:22;8.50;;;3.87;;
18290;SDS011;9271;48.590;8.866;2023-11-21T00:21:48;6.47;;;2.60;;
18290;SDS011;9271;48.590;8.866;2023-11-21T00:24:15;8.07;;;2.73;;
18290;SDS011;9271;48.590;8.866;2023-11-21T00:26:44;7.77;;;3.30;;
18290;SDS011;9271;48.590;8.866;2023-11-21T00:29:11;7.33;;;3.20;;
18290;SDS011;9271;48.590;8.866;2023-11-21T00:31:38;5.70;;;3.53;;
18290;SDS011;9271;48.590;8.866;2023-11-21T00:34:04;8.30;;;2.70;;
18290;SDS011;9271;48.590;8.866;2023-11-21T00:36:31;6.07;;;3.30;;
18290;SDS011;9271;48.590;8.866;2023-11-21T00:38:58;6.47;;;3.13;;
18290;SDS011;9271;48.590;8.866;2023-11-21T00:41:25;8.10;;;3.20;;
18290;SDS011;9271;48.590;8.866;2023-11-21T00:43:54;10.53;;;3.70;;
18290;SDS011;9271;48.590;8.866;2023-11-21T00:46:20;7.07;;;3.53;;
18290;SDS011;9271;48.590;8.866;2023-11-21T00:48:49;8.80;;;4.73;;
18290;SDS011;9271;48.590;8.866;2023-11-21T00:51:15;4.90;;;2.77;;
18290;SDS011;9271;48.590;8.866;2023-11-21T00:53:42;6.50;;;2.60;;
18290;SDS011;9271;48.590;8.866;2023-11-21T00:56:09;6.47;;;2.73;;
18290;SDS011;9271;48.590;8.866;2023-11-21T00:58:35;6.10;;;2.90;;
18290;SDS011;9271;48.590;8.866;2023-11-21T01:01:03;4.63;;;2.20;;
18290;SDS011;9271;48.590;8.866;2023-11-21T01:03:30;5.10;;;2.17;;
18290;SDS011;9271;48.590;8.866;2023-11-21T01:05:57;3.50;;;2.20;;
18290;SDS011;9271;48.590;8.866;2023-11-21T01:08:24;4.13;;;2.40;;
18290;SDS011;9271;48.590;8.866;2023-11-21T01:10:50;4.77;;;2.10;;
18290;SDS011;9271;48.590;8.866;2023-11-21T01:13:17;6.40;;;2.63;;
18290;SDS011;9271;48.590;8.866;2023-11-21T01:15:44;5.17;;;2.23;;
18290;SDS011;9271;48.590;8.866;2023-11-21T01:18:12;6.87;;;2.40;;
18290;SDS011;9271;48.590;8.866;2023-11-21T01:20:39;5.27;;;2.20;;
18290;SDS011;9271;48.590;8.866;2023-11-21T01:23:06;5.57;;;2.60;;
18290;SDS011;9271;48.590;8.866;2023-11-21T01:25:32;5.27;;;2.73;;
18290;SDS011;9271;48.590;8.866;2023-11-21T01:27:59;3.33;;;2.63;;
18290;SDS011;9271;48.590;8.866;2023-11-21T01:30:25;4.43;;;2.70;;
18290;SDS011;9271;48.590;8.866;2023-11-21T01:32:52;4.07;;;2.47;;
18290;SDS011;9271;48.590;8.866;2023-11-21T01:35:20;5.43;;;2.60;;
18290;SDS011;9271;48.590;8.866;2023-11-21T01:37:47;3.47;;;2.17;;
18290;SDS011;9271;48.590;8.866;2023-11-21T01:40:14;7.03;;;2.73;;
18290;SDS011;9271;48.590;8.866;2023-11-21T01:42:41;4.87;;;2.13;;
18290;SDS011;9271;48.590;8.866;2023-11-21T01:45:08;4.60;;;2.17;;
18290;SDS011;9271;48.590;8.866;2023-11-21T01:47:37;5.70;;;2.10;;
18290;SDS011;9271;48.590;8.866;2023-11-21T01:50:06;4.07;;;1.73;;
18290;SDS011;9271;48.590;8.866;2023-11-21T01:52:38;4.93;;;2.63;;
18290;SDS011;9271;48.590;8.866;2023-11-21T01:55:06;4.77;;;3.70;;
18290;SDS011;9271;48.590;8.866;2023-11-21T01:57:34;8.10;;;3.33;;
18290;SDS011;9271;48.590;8.866;2023-11-21T02:00:03;8.47;;;3.17;;
18290;SDS011;9271;48.590;8.866;2023-11-21T02:02:40;5.80;;;3.93;;
18290;SDS011;9271;48.590;8.866;2023-11-21T02:05:07;7.13;;;3.07;;
18290;SDS011;9271;48.590;8.866;2023-11-21T02:07:34;4.67;;;2.87;;
18290;SDS011;9271;48.590;8.866;2023-11-21T02:10:04;3.73;;;2.57;;
18290;SDS011;9271;48.590;8.866;2023-11-21T02:12:32;5.47;;;2.90;;
18290;SDS011;9271;48.590;8.866;2023-11-21T02:14:58;5.03;;;2.60;;
18290;SDS011;9271;48.590;8.866;2023-11-21T02:17:25;6.67;;;2.43;;
18290;SDS011;9271;48.590;8.866;2023-11-21T02:19:52;3.47;;;2.50;;
18290;SDS011;9271;48.590;8.866;2023-11-21T02:22:19;7.57;;;2.30;;
18290;SDS011;9271;48.590;8.866;2023-11-21T02:24:48;4.73;;;2.13;;
18290;SDS011;9271;48.590;8.866;2023-11-21T02:27:16;5.53;;;2.60;;
18290;SDS011;9271;48.590;8.866;2023-11-21T02:29:46;6.13;;;2.37;;
18290;SDS011;9271;48.590;8.866;2023-11-21T02:32:13;4.13;;;2.30;;
18290;SDS011;9271;48.590;8.866;2023-11-21T02:34:42;3.87;;;1.90;;
18290;SDS011;9271;48.590;8.866;2023-11-21T02:37:08;5.03;;;2.53;;
18290;SDS011;9271;48.590;8.866;2023-11-21T02:39:35;3.70;;;2.03;;
18290;SDS011;9271;48.590;8.866;2023-11-21T02:42:04;2.53;;;2.00;;
18290;SDS011;9271;48.590;8.866;2023-11-21T02:44:31;3.33;;;1.90;;
18290;SDS011;9271;48.590;8.866;2023-11-21T02:46:57;2.27;;;1.80;;
18290;SDS011;9271;48.590;8.866;2023-11-21T02:49:25;4.07;;;2.00;;
18290;SDS011;9271;48.590;8.866;2023-11-21T02:51:53;2.33;;;1.50;;
18290;SDS011;9271;48.590;8.866;2023-11-21T02:54:19;3.80;;;1.90;;
18290;SDS011;9271;48.590;8.866;2023-11-21T02:56:47;3.37;;;1.60;;
18290;SDS011;9271;48.590;8.866;2023-11-21T02:59:16;3.67;;;1.60;;
18290;SDS011;9271;48.590;8.866;2023-11-21T03:01:42;3.10;;;1.53;;
18290;SDS011;9271;48.590;8.866;2023-11-21T03:04:09;3.33;;;1.63;;
18290;SDS011;9271;48.590;8.866;2023-11-21T03:06:36;2.03;;;1.40;;
18290;SDS011;9271;48.590;8.866;2023-11-21T03:09:02;2.73;;;1.40;;
18290;SDS011;9271;48.590;8.866;2023-11-21T03:11:29;3.67;;;1.40;;
18290;SDS011;9271;48.590;8.866;2023-11-21T03:13:57;2.23;;;1.37;;
18290;SDS011;9271;48.590;8.866;2023-11-21T03:16:25;5.30;;;1.80;;
18290;SDS011;9271;48.590;8.866;2023-11-21T03:18:52;2.17;;;1.40;;
18290;SDS011;9271;48.590;8.866;2023-11-21T03:21:18;1.47;;;1.20;;
18290;SDS011;9271;48.590;8.866;2023-11-21T03:23:45;2.97;;;1.33;;
18290;SDS011;9271;48.590;8.866;2023-11-21T03:26:12;2.27;;;1.33;;
18290;SDS011;9271;48.590;8.866;2023-11-21T03:28:39;1.37;;;1.07;;
18290;SDS011;9271;48.590;8.866;2023-11-21T03:31:05;2.97;;;1.30;;
18290;SDS011;9271;48.590;8.866;2023-11-21T03:33:35;2.90;;;1.53;;
18290;SDS011;9271;48.590;8.866;2023-11-21T03:36:02;1.50;;;1.23;;
18290;SDS011;9271;48.590;8.866;2023-11-21T03:38:29;2.13;;;1.60;;
18290;SDS011;9271;48.590;8.866;2023-11-21T03:40:55;2.00;;;1.50;;
18290;SDS011;9271;48.590;8.866;2023-11-21T03:43:22;3.20;;;1.40;;
18290;SDS011;9271;48.590;8.866;2023-11-21T03:45:49;2.20;;;1.10;;
18290;SDS011;9271;48.590;8.866;2023-11-21T03:48:16;1.83;;;1.10;;
18290;SDS011;9271;48.590;8.866;2023-11-21T03:50:44;1.93;;;1.10;;
18290;SDS011;9271;48.590;8.866;2023-11-21T03:53:12;2.23;;;1.20;;
18290;SDS011;9271;48.590;8.866;2023-11-21T03:55:39;1.30;;;1.03;;
18290;SDS011;9271;48.590;8.866;2023-11-21T03:58:05;1.63;;;1.10;;
18290;SDS011;9271;48.590;8.866;2023-11-21T04:00:32;3.03;;;1.20;;
18290;SDS011;9271;48.590;8.866;2023-11-21T04:02:58;2.17;;;1.10;;
18290;SDS011;9271;48.590;8.866;2023-11-21T04:05:25;1.13;;;1.10;;
18290;SDS011;9271;48.590;8.866;2023-11-21T04:07:53;1.53;;;1.43;;
18290;SDS011;9271;48.590;8.866;2023-11-21T04:10:20;1.60;;;1.20;;
18290;SDS011;9271;48.590;8.866;2023-11-21T04:12:48;1.60;;;1.03;;
18290;SDS011;9271;48.590;8.866;2023-11-21T04:15:14;1.13;;;1.03;;
18290;SDS011;9271;48.590;8.866;2023-11-21T04:17:42;1.30;;;1.20;;
18290;SDS011;9271;48.590;8.866;2023-11-21T04:20:10;1.10;;;1.00;;
18290;SDS011;9271;48.590;8.866;2023-11-21T04:22:37;2.50;;;0.97;;
18290;SDS011;9271;48.590;8.866;2023-11-21T04:25:09;3.20;;;1.10;;
18290;SDS011;9271;48.590;8.866;2023-11-21T04:27:37;2.17;;;1.20;;
18290;SDS011;9271;48.590;8.866;2023-11-21T04:30:05;0.87;;;0.83;;
18290;SDS011;9271;48.590;8.866;2023-11-21T04:32:32;0.90;;;0.90;;
18290;SDS011;9271;48.590;8.866;2023-11-21T04:34:59;3.07;;;1.30;;
18290;SDS011;9271;48.590;8.866;2023-11-21T04:37:26;2.23;;;0.80;;
18290;SDS011;9271;48.590;8.866;2023-11-21T04:39:53;1.10;;;0.80;;
18290;SDS011;9271;48.590;8.866;2023-11-21T04:42:20;2.30;;;0.90;;
18290;SDS011;9271;48.590;8.866;2023-11-21T04:44:48;2.27;;;1.10;;
18290;SDS011;9271;48.590;8.866;2023-11-21T04:47:14;2.17;;;0.83;;
18290;SDS011;9271;48.590;8.866;2023-11-21T04:49:42;1.27;;;1.00;;
18290;SDS011;9271;48.590;8.866;2023-11-21T04:52:09;0.90;;;0.90;;
18290;SDS011;9271;48.590;8.866;2023-11-21T04:54:36;1.20;;;1.10;;
18290;SDS011;9271;48.590;8.866;2023-11-21T04:57:02;1.23;;;1.13;;
18290;SDS011;9271;48.590;8.866;2023-11-21T04:59:31;1.10;;;1.07;;
18290;SDS011;9271;48.590;8.866;2023-11-21T05:01:58;1.77;;;1.00;;
18290;SDS011;9271;48.590;8.866;2023-11-21T05:04:25;1.40;;;1.03;;
18290;SDS011;9271;48.590;8.866;2023-11-21T05:06:52;0.90;;;0.90;;
18290;SDS011;9271;48.590;8.866;2023-11-21T05:09:18;1.10;;;0.90;;
18290;SDS011;9271;48.590;8.866;2023-11-21T05:11:47;1.53;;;1.00;;
18290;SDS011;9271;48.590;8.866;2023-11-21T05:14:13;2.50;;;1.00;;
18290;SDS011;9271;48.590;8.866;2023-11-21T05:16:41;2.50;;;1.00;;
18290;SDS011;9271;48.590;8.866;2023-11-21T05:19:08;0.87;;;0.87;;
18290;SDS011;9271;48.590;8.866;2023-11-21T05:21:35;0.90;;;0.90;;
18290;SDS011;9271;48.590;8.866;2023-11-21T05:24:02;1.37;;;0.80;;
18290;SDS011;9271;48.590;8.866;2023-11-21T05:26:30;7.63;;;1.20;;
18290;SDS011;9271;48.590;8.866;2023-11-21T05:28:57;5.23;;;1.00;;
18290;SDS011;9271;48.590;8.866;2023-11-21T05:31:23;5.70;;;3.97;;
18290;SDS011;9271;48.590;8.866;2023-11-21T05:33:51;3.20;;;1.93;;
18290;SDS011;9271;48.590;8.866;2023-11-21T05:36:18;1.27;;;1.23;;
18290;SDS011;9271;48.590;8.866;2023-11-21T05:38:44;3.07;;;1.50;;
18290;SDS011;9271;48.590;8.866;2023-11-21T05:41:11;2.23;;;1.10;;
18290;SDS011;9271;48.590;8.866;2023-11-21T05:43:38;1.00;;;1.00;;
18290;SDS011;9271;48.590;8.866;2023-11-21T05:46:06;1.30;;;1.20;;
18290;SDS011;9271;48.590;8.866;2023-11-21T05:48:34;1.10;;;1.00;;
18290;SDS011;9271;48.590;8.866;2023-11-21T05:51:03;1.07;;;1.03;;
18290;SDS011;9271;48.590;8.866;2023-11-21T05:53:30;1.73;;;1.00;;
18290;SDS011;9271;48.590;8.866;2023-11-21T05:55:56;1.10;;;1.10;;
18290;SDS011;9271;48.590;8.866;2023-11-21T05:58:23;1.00;;;1.00;;
18290;SDS011;9271;48.590;8.866;2023-11-21T06:00:49;0.97;;;0.93;;
18290;SDS011;9271;48.590;8.866;2023-11-21T06:03:16;1.00;;;1.00;;
18290;SDS011;9271;48.590;8.866;2023-11-21T06:05:43;1.10;;;0.93;;
18290;SDS011;9271;48.590;8.866;2023-11-21T06:08:11;1.20;;;1.10;;
18290;SDS011;9271;48.590;8.866;2023-11-21T06:10:37;1.27;;;1.17;;
18290;SDS011;9271;48.590;8.866;2023-11-21T06:13:04;1.73;;;1.40;;
18290;SDS011;9271;48.590;8.866;2023-11-21T06:15:32;1.30;;;1.20;;
18290;SDS011;9271;48.590;8.866;2023-11-21T06:17:59;1.20;;;1.20;;
18290;SDS011;9271;48.590;8.866;2023-11-21T06:20:26;1.50;;;1.40;;
18290;SDS011;9271;48.590;8.866;2023-11-21T06:22:53;1.10;;;1.10;;
18290;SDS011;9271;48.590;8.866;2023-11-21T06:25:21;1.70;;;1.60;;
18290;SDS011;9271;48.590;8.866;2023-11-21T06:27:47;2.73;;;2.23;;
18290;SDS011;9271;48.590;8.866;2023-11-21T06:30:15;3.37;;;2.50;;
18290;SDS011;9271;48.590;8.866;2023-11-21T06:32:45;3.27;;;2.90;;
18290;SDS011;9271;48.590;8.866;2023-11-21T06:35:12;1.97;;;1.80;;
18290;SDS011;9271;48.590;8.866;2023-11-21T06:37:40;3.87;;;3.57;;
18290;SDS011;9271;48.590;8.866;2023-11-21T06:40:12;2.13;;;1.93;;
18290;SDS011;9271;48.590;8.866;2023-11-21T06:42:41;3.10;;;2.33;;
18290;SDS011;9271;48.590;8.866;2023-11-21T06:45:09;1.70;;;1.60;;
18290;SDS011;9271;48.590;8.866;2023-11-21T06:47:36;1.70;;;1.60;;
18290;SDS011;9271;48.590;8.866;2023-11-21T06:50:03;2.63;;;1.60;;
18290;SDS011;9271;48.590;8.866;2023-11-21T06:52:32;2.07;;;1.53;;
18290;SDS011;9271;48.590;8.866;2023-11-21T06:54:58;2.27;;;1.63;;
18290;SDS011;9271;48.590;8.866;2023-11-21T06:57:25;1.57;;;1.53;;
18290;SDS011;9271;48.590;8.866;2023-11-21T06:59:53;1.47;;;1.47;;
18290;SDS011;9271;48.590;8.866;2023-11-21T07:02:22;1.80;;;1.67;;
18290;SDS011;9271;48.590;8.866;2023-11-21T07:04:49;1.70;;;1.60;;
18290;SDS011;9271;48.590;8.866;2023-11-21T07:07:15;1.93;;;1.50;;
18290;SDS011;9271;48.590;8.866;2023-11-21T07:09:42;1.57;;;1.43;;
18290;SDS011;9271;48.590;8.866;2023-11-21T07:12:09;2.50;;;1.70;;
18290;SDS011;9271;48.590;8.866;2023-11-21T07:14:36;1.57;;;1.47;;
18290;SDS011;9271;48.590;8.866;2023-11-21T07:17:05;1.53;;;1.43;;
18290;SDS011;9271;48.590;8.866;2023-11-21T07:19:32;4.73;;;1.70;;
18290;SDS011;9271;48.590;8.866;2023-11-21T07:21:59;1.60;;;1.50;;
18290;SDS011;9271;48.590;8.866;2023-11-21T07:24:25;2.20;;;1.70;;
18290;SDS011;9271;48.590;8.866;2023-11-21T07:26:52;1.60;;;1.50;;
18290;SDS011;9271;48.590;8.866;2023-11-21T07:29:21;2.33;;;1.50;;
18290;SDS011;9271;48.590;8.866;2023-11-21T07:31:50;1.70;;;1.60;;
18290;SDS011;9271;48.590;8.866;2023-11-21T07:34:18;2.23;;;2.00;;
18290;SDS011;9271;48.590;8.866;2023-11-21T07:36:45;3.03;;;1.80;;
18290;SDS011;9271;48.590;8.866;2023-11-21T07:39:12;2.93;;;2.10;;
18290;SDS011;9271;48.590;8.866;2023-11-21T07:41:40;2.00;;;1.80;;
18290;SDS011;9271;48.590;8.866;2023-11-21T07:44:10;2.60;;;1.97;;
18290;SDS011;9271;48.590;8.866;2023-11-21T07:46:37;2.90;;;1.87;;
18290;SDS011;9271;48.590;8.866;2023-11-21T07:49:03;1.97;;;1.70;;
18290;SDS011;9271;48.590;8.866;2023-11-21T07:51:31;1.60;;;1.40;;
18290;SDS011;9271;48.590;8.866;2023-11-21T07:53:58;1.53;;;1.43;;
18290;SDS011;9271;48.590;8.866;2023-11-21T07:56:25;1.40;;;1.20;;
18290;SDS011;9271;48.590;8.866;2023-11-21T07:58:52;2.20;;;1.60;;
18290;SDS011;9271;48.590;8.866;2023-11-21T08:01:19;2.30;;;1.60;;
18290;SDS011;9271;48.590;8.866;2023-11-21T08:03:45;1.60;;;1.30;;
18290;SDS011;9271;48.590;8.866;2023-11-21T08:06:16;2.60;;;1.10;;
18290;SDS011;9271;48.590;8.866;2023-11-21T08:08:44;2.03;;;1.10;;
18290;SDS011;9271;48.590;8.866;2023-11-21T08:11:10;2.20;;;1.27;;
18290;SDS011;9271;48.590;8.866;2023-11-21T08:13:37;1.20;;;1.10;;
18290;SDS011;9271;48.590;8.866;2023-11-21T08:16:04;2.20;;;1.13;;
18290;SDS011;9271;48.590;8.866;2023-11-21T08:18:32;2.50;;;1.20;;
18290;SDS011;9271;48.590;8.866;2023-11-21T08:21:00;1.00;;;1.00;;
18290;SDS011;9271;48.590;8.866;2023-11-21T08:23:28;1.00;;;0.90;;
18290;SDS011;9271;48.590;8.866;2023-11-21T08:25:56;1.40;;;1.13;;
18290;SDS011;9271;48.590;8.866;2023-11-21T08:28:22;0.90;;;0.90;;
18290;SDS011;9271;48.590;8.866;2023-11-21T08:30:50;0.93;;;0.80;;
18290;SDS011;9271;48.590;8.866;2023-11-21T08:33:17;1.60;;;1.50;;
18290;SDS011;9271;48.590;8.866;2023-11-21T08:35:44;1.30;;;1.20;;
18290;SDS011;9271;48.590;8.866;2023-11-21T08:38:11;1.20;;;1.10;;
18290;SDS011;9271;48.590;8.866;2023-11-21T08:40:38;2.03;;;1.40;;
18290;SDS011;9271;48.590;8.866;2023-11-21T08:43:07;1.00;;;1.00;;
18290;SDS011;9271;48.590;8.866;2023-11-21T08:45:34;1.30;;;1.20;;
18290;SDS011;9271;48.590;8.866;2023-11-21T08:48:00;1.47;;;1.37;;
18290;SDS011;9271;48.590;8.866;2023-11-21T08:50:27;1.30;;;1.30;;
18290;SDS011;9271;48.590;8.866;2023-11-21T08:52:54;1.60;;;1.50;;
18290;SDS011;9271;48.590;8.866;2023-11-21T08:55:21;1.33;;;1.10;;
18290;SDS011;9271;48.590;8.866;2023-11-21T08:57:47;1.77;;;1.50;;
18290;SDS011;9271;48.590;8.866;2023-11-21T09:00:16;2.97;;;1.33;;
18290;SDS011;9271;48.590;8.866;2023-11-21T09:02:43;3.03;;;1.13;;
18290;SDS011;9271;48.590;8.866;2023-11-21T09:05:11;3.93;;;1.20;;
18290;SDS011;9271;48.590;8.866;2023-11-21T09:07:38;1.10;;;1.10;;
18290;SDS011;9271;48.590;8.866;2023-11-21T09:10:07;1.07;;;1.07;;
18290;SDS011;9271;48.590;8.866;2023-11-21T09:12:34;0.90;;;0.90;;
18290;SDS011;9271;48.590;8.866;2023-11-21T09:15:02;0.90;;;0.90;;
18290;SDS011;9271;48.590;8.866;2023-11-21T09:17:31;1.17;;;1.17;;
18290;SDS011;9271;48.590;8.866;2023-11-21T09:19:59;1.27;;;1.00;;
18290;SDS011;9271;48.590;8.866;2023-11-21T09:22:25;1.00;;;0.90;;
18290;SDS011;9271;48.590;8.866;2023-11-21T09:24:54;1.00;;;1.00;;
18290;SDS011;9271;48.590;8.866;2023-11-21T09:27:21;1.27;;;1.17;;
18290;SDS011;9271;48.590;8.866;2023-11-21T09:29:48;2.03;;;1.30;;
18290;SDS011;9271;48.590;8.866;2023-11-21T09:32:15;1.00;;;1.00;;
18290;SDS011;9271;48.590;8.866;2023-11-21T09:34:45;1.10;;;1.10;;
18290;SDS011;9271;48.590;8.866;2023-11-21T09:37:11;0.90;;;0.90;;
18290;SDS011;9271;48.590;8.866;2023-11-21T09:39:38;1.00;;;1.00;;
18290;SDS011;9271;48.590;8.866;2023-11-21T09:42:08;1.00;;;0.90;;
18290;SDS011;9271;48.590;8.866;2023-11-21T09:44:44;1.40;;;0.80;;
18290;SDS011;9271;48.590;8.866;2023-11-21T09:47:14;1.20;;;1.10;;
18290;SDS011;9271;48.590;8.866;2023-11-21T09:49:42;1.10;;;1.10;;
18290;SDS011;9271;48.590;8.866;2023-11-21T09:52:13;1.10;;;1.10;;
18290;SDS011;9271;48.590;8.866;2023-11-21T09:54:47;1.03;;;0.97;;
18290;SDS011;9271;48.590;8.866;2023-11-21T09:57:16;0.83;;;0.83;;
18290;SDS011;9271;48.590;8.866;2023-11-21T09:59:43;1.40;;;1.30;;
18290;SDS011;9271;48.590;8.866;2023-11-21T10:02:13;1.30;;;1.20;;
18290;SDS011;9271;48.590;8.866;2023-11-21T10:04:44;1.37;;;1.00;;
18290;SDS011;9271;48.590;8.866;2023-11-21T10:07:13;1.10;;;1.10;;
18290;SDS011;9271;48.590;8.866;2023-11-21T10:09:43;1.27;;;1.20;;
18290;SDS011;9271;48.590;8.866;2023-11-21T10:12:10;1.27;;;1.00;;
18290;SDS011;9271;48.590;8.866;2023-11-21T10:14:40;1.10;;;1.00;;
18290;SDS011;9271;48.590;8.866;2023-11-21T10:17:08;1.43;;;1.20;;
18290;SDS011;9271;48.590;8.866;2023-11-21T10:19:38;1.10;;;1.10;;
18290;SDS011;9271;48.590;8.866;2023-11-21T10:22:06;1.97;;;1.10;;
18290;SDS011;9271;48.590;8.866;2023-11-21T10:24:33;1.27;;;1.20;;
18290;SDS011;9271;48.590;8.866;2023-11-21T10:27:01;1.23;;;0.97;;
18290;SDS011;9271;48.590;8.866;2023-11-21T10:29:29;2.33;;;1.10;;
18290;SDS011;9271;48.590;8.866;2023-11-21T10:31:56;1.07;;;0.97;;
18290;SDS011;9271;48.590;8.866;2023-11-21T10:34:24;1.13;;;1.00;;
18290;SDS011;9271;48.590;8.866;2023-11-21T10:36:52;0.97;;;0.90;;
18290;SDS011;9271;48.590;8.866;2023-11-21T10:39:24;0.90;;;0.90;;
18290;SDS011;9271;48.590;8.866;2023-11-21T10:41:55;0.70;;;0.70;;
18290;SDS011;9271;48.590;8.866;2023-11-21T10:44:22;0.90;;;0.90;;
18290;SDS011;9271;48.590;8.866;2023-11-21T10:46:50;2.10;;;1.00;;
18290;SDS011;9271;48.590;8.866;2023-11-21T10:49:21;1.00;;;0.90;;
18290;SDS011;9271;48.590;8.866;2023-11-21T10:51:50;1.00;;;1.00;;
18290;SDS011;9271;48.590;8.866;2023-11-21T10:54:18;1.20;;;1.00;;
18290;SDS011;9271;48.590;8.866;2023-11-21T10:56:48;0.77;;;0.77;;
18290;SDS011;9271;48.590;8.866;2023-11-21T10:59:17;1.10;;;0.87;;
18290;SDS011;9271;48.590;8.866;2023-11-21T11:01:46;0.90;;;0.90;;
18290;SDS011;9271;48.590;8.866;2023-11-21T11:04:14;0.80;;;0.80;;
18290;SDS011;9271;48.590;8.866;2023-11-21T11:06:44;0.73;;;0.73;;
18290;SDS011;9271;48.590;8.866;2023-11-21T11:09:12;0.70;;;0.70;;
18290;SDS011;9271;48.590;8.866;2023-11-21T11:11:41;0.87;;;0.87;;
18290;SDS011;9271;48.590;8.866;2023-11-21T11:14:11;1.20;;;1.10;;
18290;SDS011;9271;48.590;8.866;2023-11-21T11:16:38;1.00;;;1.00;;
18290;SDS011;9271;48.590;8.866;2023-11-21T11:19:06;0.83;;;0.83;;
18290;SDS011;9271;48.590;8.866;2023-11-21T11:21:35;0.90;;;0.90;;
18290;SDS011;9271;48.590;8.866;2023-11-21T11:24:21;0.90;;;0.90;;
18290;SDS011;9271;48.590;8.866;2023-11-21T11:27:01;1.10;;;1.10;;
18290;SDS011;9271;48.590;8.866;2023-11-21T11:29:45;1.00;;;0.70;;
18290;SDS011;9271;48.590;8.866;2023-11-21T11:32:24;1.47;;;0.90;;
18290;SDS011;9271;48.590;8.866;2023-11-21T11:35:03;1.30;;;1.20;;
18290;SDS011;9271;48.590;8.866;2023-11-21T11:37:33;1.50;;;1.40;;
18290;SDS011;9271;48.590;8.866;2023-11-21T11:40:00;2.10;;;1.27;;
18290;SDS011;9271;48.590;8.866;2023-11-21T11:42:28;1.50;;;1.40;;
18290;SDS011;9271;48.590;8.866;2023-11-21T11:44:56;1.53;;;1.43;;
18290;SDS011;9271;48.590;8.866;2023-11-21T11:47:24;0.90;;;0.90;;
18290;SDS011;9271;48.590;8.866;2023-11-21T11:50:03;1.30;;;1.20;;
18290;SDS011;9271;48.590;8.866;2023-11-21T11:52:33;1.50;;;1.40;;
18290;SDS011;9271;48.590;8.866;2023-11-21T11:55:05;0.93;;;0.93;;
18290;SDS011;9271;48.590;8.866;2023-11-21T11:57:35;0.90;;;0.90;;
18290;SDS011;9271;48.590;8.866;2023-11-21T12:00:11;0.90;;;0.90;;
18290;SDS011;9271;48.590;8.866;2023-11-21T12:02:44;0.97;;;0.97;;
18290;SDS011;9271;48.590;8.866;2023-11-21T12:05:12;0.90;;;0.90;;
18290;SDS011;9271;48.590;8.866;2023-11-21T12:07:47;0.90;;;0.90;;
18290;SDS011;9271;48.590;8.866;2023-11-21T12:10:16;0.80;;;0.80;;
18290;SDS011;9271;48.590;8.866;2023-11-21T12:12:47;0.90;;;0.90;;
18290;SDS011;9271;48.590;8.866;2023-11-21T12:15:16;0.97;;;0.97;;
18290;SDS011;9271;48.590;8.866;2023-11-21T12:17:43;1.83;;;1.00;;
18290;SDS011;9271;48.590;8.866;2023-11-21T12:20:11;1.00;;;1.00;;
18290;SDS011;9271;48.590;8.866;2023-11-21T12:22:42;1.10;;;1.10;;
18290;SDS011;9271;48.590;8.866;2023-11-21T12:25:09;1.17;;;1.17;;
18290;SDS011;9271;48.590;8.866;2023-11-21T12:27:41;1.30;;;1.20;;
18290;SDS011;9271;48.590;8.866;2023-11-21T12:30:08;1.20;;;1.10;;
18290;SDS011;9271;48.590;8.866;2023-11-21T12:32:39;1.20;;;1.10;;
18290;SDS011;9271;48.590;8.866;2023-11-21T12:35:07;1.27;;;1.17;;
18290;SDS011;9271;48.590;8.866;2023-11-21T12:37:34;1.00;;;1.00;;
18290;SDS011;9271;48.590;8.866;2023-11-21T12:40:02;1.03;;;1.03;;
18290;SDS011;9271;48.590;8.866;2023-11-21T12:42:29;1.10;;;1.00;;
18290;SDS011;9271;48.590;8.866;2023-11-21T12:45:06;1.20;;;1.10;;
18290;SDS011;9271;48.590;8.866;2023-11-21T12:47:46;1.10;;;1.10;;
18290;SDS011;9271;48.590;8.866;2023-11-21T12:50:14;1.20;;;1.20;;
18290;SDS011;9271;48.590;8.866;2023-11-21T12:52:41;1.57;;;1.47;;
18290;SDS011;9271;48.590;8.866;2023-11-21T12:55:12;1.40;;;1.40;;
18290;SDS011;9271;48.590;8.866;2023-11-21T12:57:41;1.60;;;1.50;;
18290;SDS011;9271;48.590;8.866;2023-11-21T13:00:09;1.63;;;1.53;;
18290;SDS011;9271;48.590;8.866;2023-11-21T13:02:53;1.50;;;1.50;;
18290;SDS011;9271;48.590;8.866;2023-11-21T13:05:28;1.83;;;1.73;;
18290;SDS011;9271;48.590;8.866;2023-11-21T13:07:56;1.97;;;1.70;;
18290;SDS011;9271;48.590;8.866;2023-11-21T13:10:25;1.73;;;1.63;;
18290;SDS011;9271;48.590;8.866;2023-11-21T13:12:56;1.87;;;1.77;;
18290;SDS011;9271;48.590;8.866;2023-11-21T13:15:24;1.80;;;1.70;;
18290;SDS011;9271;48.590;8.866;2023-11-21T13:17:54;2.20;;;2.00;;
18290;SDS011;9271;48.590;8.866;2023-11-21T13:20:22;1.83;;;1.73;;
18290;SDS011;9271;48.590;8.866;2023-11-21T13:22:50;1.53;;;1.43;;
18290;SDS011;9271;48.590;8.866;2023-11-21T13:25:19;1.70;;;1.60;;
18290;SDS011;9271;48.590;8.866;2023-11-21T13:27:47;1.30;;;1.30;;
18290;SDS011;9271;48.590;8.866;2023-11-21T13:30:20;1.37;;;1.30;;
18290;SDS011;9271;48.590;8.866;2023-11-21T13:32:51;1.20;;;1.20;;
18290;SDS011;9271;48.590;8.866;2023-11-21T13:35:22;1.73;;;1.57;;
18290;SDS011;9271;48.590;8.866;2023-11-21T13:37:56;1.70;;;1.60;;
18290;SDS011;9271;48.590;8.866;2023-11-21T13:40:25;1.50;;;1.50;;
18290;SDS011;9271;48.590;8.866;2023-11-21T13:42:52;1.93;;;1.83;;
18290;SDS011;9271;48.590;8.866;2023-11-21T13:45:20;1.97;;;1.87;;
18290;SDS011;9271;48.590;8.866;2023-11-21T13:47:49;2.00;;;1.90;;
18290;SDS011;9271;48.590;8.866;2023-11-21T13:50:18;2.10;;;2.00;;
18290;SDS011;9271;48.590;8.866;2023-11-21T13:52:48;2.03;;;1.93;;
18290;SDS011;9271;48.590;8.866;2023-11-21T13:55:16;2.30;;;2.10;;
18290;SDS011;9271;48.590;8.866;2023-11-21T13:57:43;2.37;;;2.17;;
18290;SDS011;9271;48.590;8.866;2023-11-21T14:00:12;2.27;;;2.17;;
18290;SDS011;9271;48.590;8.866;2023-11-21T14:03:00;2.47;;;2.27;;
18290;SDS011;9271;48.590;8.866;2023-11-21T14:05:31;2.63;;;2.43;;
18290;SDS011;9271;48.590;8.866;2023-11-21T14:07:59;2.70;;;2.50;;
18290;SDS011;9271;48.590;8.866;2023-11-21T14:10:29;2.20;;;2.10;;
18290;SDS011;9271;48.590;8.866;2023-11-21T14:13:02;2.33;;;2.23;;
18290;SDS011;9271;48.590;8.866;2023-11-21T14:15:30;2.20;;;2.10;;
18290;SDS011;9271;48.590;8.866;2023-11-21T14:17:58;2.30;;;2.10;;
18290;SDS011;9271;48.590;8.866;2023-11-21T14:20:27;1.80;;;1.70;;
18290;SDS011;9271;48.590;8.866;2023-11-21T14:22:56;1.70;;;1.60;;
18290;SDS011;9271;48.590;8.866;2023-11-21T14:25:23;1.30;;;1.30;;
18290;SDS011;9271;48.590;8.866;2023-11-21T14:27:52;1.40;;;1.30;;
18290;SDS011;9271;48.590;8.866;2023-11-21T14:30:18;1.30;;;1.20;;
18290;SDS011;9271;48.590;8.866;2023-11-21T14:32:47;1.10;;;1.10;;
18290;SDS011;9271;48.590;8.866;2023-11-21T14:35:14;1.80;;;1.17;;
18290;SDS011;9271;48.590;8.866;2023-11-21T14:37:41;1.10;;;1.10;;
18290;SDS011;9271;48.590;8.866;2023-11-21T14:40:10;1.10;;;1.10;;
18290;SDS011;9271;48.590;8.866;2023-11-21T14:42:40;1.30;;;1.20;;
18290;SDS011;9271;48.590;8.866;2023-11-21T14:45:08;1.00;;;1.00;;
18290;SDS011;9271;48.590;8.866;2023-11-21T14:47:37;1.17;;;1.00;;
18290;SDS011;9271;48.590;8.866;2023-11-21T14:50:09;1.00;;;1.00;;
18290;SDS011;9271;48.590;8.866;2023-11-21T14:53:04;1.27;;;1.27;;
18290;SDS011;9271;48.590;8.866;2023-11-21T14:55:32;0.90;;;0.90;;
18290;SDS011;9271;48.590;8.866;2023-11-21T14:58:10;1.03;;;1.03;;
18290;SDS011;9271;48.590;8.866;2023-11-21T15:00:40;0.70;;;0.70;;
18290;SDS011;9271;48.590;8.866;2023-11-21T15:03:09;0.77;;;0.77;;
18290;SDS011;9271;48.590;8.866;2023-11-21T15:05:46;1.33;;;0.80;;
18290;SDS011;9271;48.590;8.866;2023-11-21T15:08:14;1.17;;;1.17;;